createdAt,value
2023-02-15T00:01:41.698Z,34.38
2023-02-15T00:07:44.135Z,34.05
2023-02-15T00:13:46.274Z,34.13
2023-02-15T00:19:48.583Z,35.70
2023-02-15T00:31:53.715Z,31.17
2023-02-15T00:43:58.899Z,26.40
2023-02-15T00:50:01.216Z,30.67
2023-02-15T00:56:03.821Z,32.10
2023-02-15T01:02:06.400Z,32.38
2023-02-15T01:08:09.088Z,32.05
2023-02-15T01:14:14.517Z,32.35
2023-02-15T01:20:17.761Z,33.78
2023-02-15T01:32:22.500Z,31.02
2023-02-15T01:38:24.786Z,28.63
2023-02-15T01:44:48.949Z,31.73
2023-02-15T01:51:01.573Z,28.00
2023-02-15T01:57:10.304Z,29.85
2023-02-15T02:03:13.506Z,29.17
2023-02-15T02:09:15.958Z,29.88
2023-02-15T02:21:51.569Z,27.67
2023-02-15T02:28:13.173Z,26.52
2023-02-15T02:34:27.241Z,27.55
2023-02-15T02:40:50.440Z,26.05
2023-02-15T02:47:00.789Z,25.83
2023-02-15T02:53:04.340Z,27.80
2023-02-15T02:59:30.831Z,26.50
2023-02-15T03:05:36.071Z,24.95
2023-02-15T03:11:38.570Z,26.35
2023-02-15T03:17:48.291Z,25.05
2023-02-15T03:23:58.556Z,25.00
2023-02-15T03:30:01.941Z,24.50
2023-02-15T03:36:25.867Z,25.98
2023-02-15T03:42:33.158Z,26.02
2023-02-15T03:48:40.449Z,27.23
2023-02-15T03:54:43.522Z,25.63
2023-02-15T04:01:18.211Z,27.35
2023-02-15T04:07:20.438Z,26.17
2023-02-15T04:13:25.362Z,26.88
2023-02-15T04:19:46.366Z,23.65
2023-02-15T04:25:48.395Z,25.27
2023-02-15T04:31:53.030Z,28.63
2023-02-15T04:37:55.196Z,25.48
2023-02-15T04:43:57.711Z,27.08
2023-02-15T04:50:00.259Z,27.35
2023-02-15T04:56:03.227Z,22.75
2023-02-15T05:02:05.914Z,26.17
2023-02-15T05:08:08.178Z,27.67
2023-02-15T05:14:10.800Z,25.90
2023-02-15T05:20:13.284Z,25.60
2023-02-15T05:32:40.596Z,25.70
2023-02-15T05:38:42.931Z,25.38
2023-02-15T05:44:45.122Z,27.98
2023-02-15T05:50:47.747Z,29.67
2023-02-15T05:56:50.124Z,35.63
2023-02-15T06:02:52.738Z,34.75
2023-02-15T06:08:55.088Z,35.22
2023-02-15T06:14:57.261Z,40.45
2023-02-15T06:20:59.470Z,39.63
2023-02-15T06:27:01.874Z,43.00
2023-02-15T06:33:04.233Z,49.67
2023-02-15T06:39:06.856Z,40.08
2023-02-15T06:45:09.808Z,42.22
2023-02-15T06:51:12.150Z,39.95
2023-02-15T06:57:14.504Z,30.70
2023-02-15T07:03:16.649Z,45.13
2023-02-15T07:09:19.147Z,41.93
2023-02-15T07:15:24.559Z,36.15
2023-02-15T07:21:26.921Z,36.33
2023-02-15T07:27:29.130Z,35.63
2023-02-15T07:33:34.914Z,36.95
2023-02-15T07:39:37.036Z,34.55
2023-02-15T07:45:39.449Z,35.63
2023-02-15T07:51:42.514Z,34.42
2023-02-15T07:57:46.126Z,29.60
2023-02-15T08:03:48.762Z,25.33
2023-02-15T08:09:51.156Z,26.45
2023-02-15T08:15:53.255Z,26.88
2023-02-15T08:22:04.476Z,25.63
2023-02-15T08:28:06.826Z,26.00
2023-02-15T08:34:16.128Z,23.67
2023-02-15T08:40:18.604Z,24.70
2023-02-15T08:46:22.738Z,22.50
2023-02-15T08:52:25.083Z,20.90
2023-02-15T08:58:27.615Z,21.85
2023-02-15T09:04:33.100Z,20.85
2023-02-15T09:16:39.240Z,21.02
2023-02-15T09:22:41.532Z,19.42
2023-02-15T09:28:44.556Z,19.75
2023-02-15T09:34:47.366Z,17.48
2023-02-15T09:47:40.699Z,18.85
2023-02-15T09:54:02.133Z,17.45
2023-02-15T10:00:34.790Z,17.52
2023-02-15T10:07:13.912Z,18.35
2023-02-15T10:13:40.755Z,16.38
2023-02-15T10:20:13.612Z,15.85
2023-02-15T10:26:24.059Z,14.25
2023-02-15T10:32:30.342Z,13.23
2023-02-15T10:38:46.207Z,15.07
2023-02-15T10:45:29.879Z,13.23
2023-02-15T10:51:55.022Z,11.23
2023-02-15T10:58:11.767Z,10.50
2023-02-15T11:04:47.313Z,11.25
2023-02-15T11:11:03.613Z,11.73
2023-02-15T11:17:14.047Z,12.57
2023-02-15T11:23:17.843Z,10.50
2023-02-15T11:29:39.932Z,11.95
2023-02-15T11:36:10.754Z,11.50
2023-02-15T11:42:23.789Z,12.05
2023-02-15T11:48:26.425Z,12.82
2023-02-15T12:00:43.426Z,14.10
2023-02-15T12:07:02.331Z,13.52
2023-02-15T12:13:14.787Z,14.77
2023-02-15T12:19:32.488Z,11.85
2023-02-15T12:25:38.616Z,11.93
2023-02-15T12:31:43.017Z,9.18
2023-02-15T12:38:24.419Z,9.35
2023-02-15T12:44:30.242Z,10.07
2023-02-15T12:50:35.425Z,9.45
2023-02-15T12:56:38.091Z,9.35
2023-02-15T13:08:54.380Z,10.20
2023-02-15T13:14:57.517Z,9.90
2023-02-15T13:21:12.501Z,11.13
2023-02-15T13:27:19.908Z,10.07
2023-02-15T13:33:27.750Z,10.65
2023-02-15T13:39:48.773Z,21.80
2023-02-15T13:46:32.905Z,11.27
2023-02-15T13:52:58.030Z,11.27
2023-02-15T13:59:28.066Z,9.65
2023-02-15T14:05:39.322Z,10.38
2023-02-15T14:12:08.708Z,10.10
2023-02-15T14:18:22.193Z,10.57
2023-02-15T14:24:36.580Z,8.77
2023-02-15T14:30:41.845Z,8.90
2023-02-15T14:36:44.734Z,10.52
2023-02-15T14:48:58.886Z,8.98
2023-02-15T14:55:01.584Z,10.75
2023-02-15T15:01:12.119Z,10.98
2023-02-15T15:07:28.041Z,13.80
2023-02-15T15:13:33.195Z,12.95
2023-02-15T15:19:52.274Z,11.18
2023-02-15T15:26:29.146Z,11.13
2023-02-15T15:32:34.641Z,12.63
2023-02-15T15:38:55.138Z,13.43
2023-02-15T15:45:22.082Z,9.82
2023-02-15T15:51:31.420Z,8.85
2023-02-15T15:57:38.879Z,8.57
2023-02-15T16:03:50.496Z,8.30
2023-02-15T16:10:03.381Z,9.32
2023-02-15T16:16:06.412Z,11.38
2023-02-15T16:22:17.401Z,12.43
2023-02-15T16:28:21.576Z,19.92
2023-02-15T16:34:23.756Z,24.98
2023-02-15T16:40:26.189Z,25.43
2023-02-15T16:46:29.905Z,20.80
2023-02-15T16:52:32.819Z,18.58
2023-02-15T16:58:42.014Z,18.10
2023-02-15T17:04:44.857Z,15.52
2023-02-15T17:11:07.484Z,19.70
2023-02-15T17:17:15.688Z,16.98
2023-02-15T17:23:29.914Z,17.95
2023-02-15T17:29:39.684Z,18.15
2023-02-15T17:35:43.110Z,20.20
2023-02-15T17:41:45.979Z,30.50
2023-02-15T17:54:11.370Z,21.97
2023-02-15T18:00:37.477Z,22.17
2023-02-15T18:07:01.204Z,21.88
2023-02-15T18:13:03.958Z,23.73
2023-02-15T18:19:07.441Z,25.88
2023-02-15T18:25:19.112Z,23.63
2023-02-15T18:31:36.504Z,26.63
2023-02-15T18:37:38.948Z,27.30
2023-02-15T18:43:41.278Z,31.05
2023-02-15T18:49:45.783Z,33.35
2023-02-15T18:55:50.037Z,31.13
2023-02-15T19:01:53.290Z,28.60
2023-02-15T19:07:56.443Z,27.15
2023-02-15T19:13:58.701Z,30.92
2023-02-15T19:20:00.907Z,25.73
2023-02-15T19:26:03.619Z,25.08
2023-02-15T19:32:06.072Z,26.17
2023-02-15T19:38:16.456Z,24.30
2023-02-15T19:44:18.953Z,25.77
2023-02-15T19:50:26.584Z,25.50
2023-02-15T19:56:29.200Z,24.77
2023-02-15T20:02:31.717Z,24.00
2023-02-15T20:08:34.228Z,23.17
2023-02-15T20:14:36.474Z,23.63
2023-02-15T20:20:51.005Z,21.02
2023-02-15T20:26:53.201Z,16.85
2023-02-15T20:32:55.698Z,18.30
2023-02-15T20:39:02.653Z,15.65
2023-02-15T20:45:15.685Z,14.88
2023-02-15T20:57:21.215Z,15.30
2023-02-15T21:03:26.736Z,13.32
2023-02-15T21:09:29.249Z,15.55
2023-02-15T21:15:35.169Z,13.48
2023-02-15T21:21:37.460Z,14.40
2023-02-15T21:27:40.048Z,14.35
2023-02-15T21:39:46.960Z,15.82
2023-02-15T21:52:23.545Z,16.85
2023-02-15T21:58:28.174Z,16.02
2023-02-15T22:04:30.903Z,16.20
2023-02-15T22:10:33.673Z,16.55
2023-02-15T22:16:36.255Z,17.02
2023-02-15T22:28:42.458Z,15.05
2023-02-15T22:34:45.108Z,12.52
2023-02-15T22:46:51.300Z,12.73
2023-02-15T22:52:53.721Z,12.57
2023-02-15T23:05:04.644Z,11.95
2023-02-15T23:11:11.212Z,13.43
2023-02-15T23:17:13.284Z,11.35
2023-02-15T23:23:16.245Z,12.45
2023-02-15T23:29:22.007Z,12.15
2023-02-15T23:35:24.582Z,12.85
2023-02-15T23:47:52.762Z,11.50
2023-02-15T23:53:54.984Z,13.50
2023-02-15T23:59:57.336Z,14.32
